KBLV/BLV METAR and TAF weather

Enter ICAO airport designator
Station Type Date Time Source
KBLV METAR 2020/06/02 18:56 UTC NOAA

KBLV 021856Z AUTO 21005KT 10SM CLR 30/18 A3001 RMK AO2 SLP162 T02990180 $


Station Type Date Time Source
KBLV Decoded METAR 2020/06/02 18:56 UTC NOAA

Belleville, Scott AFB/MidAmerica Airport, IL, United States (KBLV) 38-33N 089-51W
Jun 02, 2020 - 02:56 PM EDT / 2020.06.02 1856 UTC
Wind: from the SSW (210 degrees) at 6 MPH (5 KT):0
Visibility: 10 mile(s):0
Sky conditions: clear
Temperature: 85.8 F (29.9 C)
Dew Point: 64.4 F (18.0 C)
Relative Humidity: 48%
Pressure (altimeter): 30.01 in. Hg (1016 hPa)
ob: KBLV 021856Z AUTO 21005KT 10SM CLR 30/18 A3001 RMK AO2 SLP162 T02990180
cycle: 19

Station Type Date Time Source
KBLV TAF 2020/06/02 16:25 UTC NOAA

TAF COR KBLV 021616Z 0216/0322 24009KT 9999 FEW110 QNH2990INS
BECMG 0314/0315 26010G15KT 9999 BKN035 QNH2979INS
BECMG 0320/0321 24009KT 9999 VCTS BKN035CB QNH2978INS TX31/0221Z TN20/0311Z

Example: see airport list